createdAt,value
2017-08-08T00:01:23.006Z,5.10
2017-08-08T00:03:51.290Z,5.70
2017-08-08T00:06:19.541Z,6.22
2017-08-08T00:08:47.055Z,5.75
2017-08-08T00:11:14.548Z,5.45
2017-08-08T00:13:42.063Z,6.10
2017-08-08T00:16:09.559Z,6.00
2017-08-08T00:18:37.070Z,5.87
2017-08-08T00:21:05.326Z,6.22
2017-08-08T00:23:32.833Z,5.85
2017-08-08T00:26:00.333Z,6.32
2017-08-08T00:28:27.952Z,6.20
2017-08-08T00:30:55.446Z,6.18
2017-08-08T00:33:22.958Z,6.50
2017-08-08T00:35:50.455Z,6.15
2017-08-08T00:38:17.970Z,6.90
2017-08-08T00:40:45.462Z,7.20
2017-08-08T00:43:12.951Z,6.15
2017-08-08T00:45:40.461Z,6.40
2017-08-08T00:48:07.958Z,7.05
2017-08-08T00:50:35.469Z,6.12
2017-08-08T00:53:02.962Z,7.25
2017-08-08T00:55:30.478Z,6.32
2017-08-08T00:57:57.966Z,7.10
2017-08-08T01:00:25.482Z,6.70
2017-08-08T01:02:53.745Z,6.82
2017-08-08T01:05:21.255Z,6.97
2017-08-08T01:07:48.751Z,6.72
2017-08-08T01:10:16.267Z,6.60
2017-08-08T01:12:43.763Z,6.80
2017-08-08T01:15:11.270Z,6.45
2017-08-08T01:17:38.762Z,6.55
2017-08-08T01:20:06.283Z,7.05
2017-08-08T01:22:33.775Z,7.70
2017-08-08T01:25:01.291Z,7.55
2017-08-08T01:27:29.545Z,7.05
2017-08-08T01:29:57.057Z,7.50
2017-08-08T01:32:24.558Z,7.10
2017-08-08T01:34:52.041Z,8.02
2017-08-08T01:37:19.554Z,7.47
2017-08-08T01:39:47.050Z,8.70
2017-08-08T01:42:14.568Z,7.60
2017-08-08T01:44:42.062Z,8.23
2017-08-08T01:47:09.574Z,7.78
2017-08-08T01:49:37.066Z,8.55
2017-08-08T01:52:04.583Z,8.27
2017-08-08T01:54:32.070Z,8.00
2017-08-08T01:56:59.563Z,9.90
2017-08-08T01:59:27.075Z,8.70
2017-08-08T02:01:54.577Z,9.25
2017-08-08T02:04:22.857Z,9.93
2017-08-08T02:06:51.118Z,8.60
2017-08-08T02:09:18.634Z,9.75
2017-08-08T02:11:46.134Z,9.80
2017-08-08T02:14:13.641Z,9.60
2017-08-08T02:16:41.138Z,9.30
2017-08-08T02:19:08.670Z,9.70
2017-08-08T02:21:36.162Z,9.27
2017-08-08T02:24:03.662Z,10.13
2017-08-08T02:26:31.177Z,10.32
2017-08-08T02:28:58.675Z,8.32
2017-08-08T02:31:26.958Z,9.50
2017-08-08T02:33:54.450Z,9.10
2017-08-08T02:36:21.966Z,9.32
2017-08-08T02:38:49.467Z,8.82
2017-08-08T02:41:16.980Z,8.50
2017-08-08T02:43:45.246Z,8.90
2017-08-08T02:46:13.521Z,8.07
2017-08-08T02:48:41.014Z,8.18
2017-08-08T02:51:08.545Z,8.85
2017-08-08T02:53:36.038Z,8.00
2017-08-08T02:56:03.537Z,8.68
2017-08-08T02:58:31.050Z,8.98
2017-08-08T03:00:58.559Z,9.18
2017-08-08T03:03:26.089Z,10.90
2017-08-08T03:05:53.586Z,9.57
2017-08-08T03:08:21.107Z,9.57
2017-08-08T03:10:48.606Z,9.23
2017-08-08T03:13:16.123Z,10.05
2017-08-08T03:15:43.625Z,11.00
2017-08-08T03:18:11.138Z,10.38
2017-08-08T03:20:38.633Z,10.38
2017-08-08T03:23:06.154Z,10.77
2017-08-08T03:25:33.650Z,10.52
2017-08-08T03:28:01.146Z,11.23
2017-08-08T03:30:28.676Z,10.90
2017-08-08T03:32:56.946Z,11.43
2017-08-08T03:35:24.471Z,12.43
2017-08-08T03:37:51.986Z,10.55
2017-08-08T03:40:19.513Z,12.15
2017-08-08T03:42:47.007Z,12.48
2017-08-08T03:45:15.291Z,11.80
2017-08-08T03:47:42.794Z,11.10
2017-08-08T03:50:10.314Z,11.43
2017-08-08T03:52:37.814Z,12.50
2017-08-08T03:55:05.330Z,11.60
2017-08-08T03:57:32.830Z,12.18
2017-08-08T04:00:00.367Z,14.02
2017-08-08T04:02:27.866Z,14.25
2017-08-08T04:04:55.362Z,12.85
2017-08-08T04:07:22.885Z,14.90
2017-08-08T04:09:50.379Z,14.93
2017-08-08T04:12:17.894Z,15.15
2017-08-08T04:14:45.389Z,13.60
2017-08-08T04:17:13.674Z,14.00
2017-08-08T04:19:41.183Z,14.70
2017-08-08T04:22:08.698Z,14.70
2017-08-08T04:24:36.194Z,14.95
2017-08-08T04:27:03.718Z,14.40
2017-08-08T04:29:31.219Z,13.62
2017-08-08T04:31:58.734Z,12.90
2017-08-08T04:34:26.230Z,12.93
2017-08-08T04:36:53.754Z,13.65
2017-08-08T04:39:21.250Z,13.75
2017-08-08T04:41:48.746Z,14.30
2017-08-08T04:44:17.030Z,13.57
2017-08-08T04:46:45.294Z,13.70
2017-08-08T04:49:12.806Z,12.55
2017-08-08T04:51:40.306Z,14.63
2017-08-08T04:54:07.830Z,14.50
2017-08-08T04:56:35.323Z,14.40
2017-08-08T04:59:02.838Z,13.77
2017-08-08T05:01:30.339Z,13.38
2017-08-08T05:03:57.863Z,15.15
2017-08-08T05:06:25.362Z,15.40
2017-08-08T05:08:52.870Z,14.27
2017-08-08T05:11:20.407Z,15.00
2017-08-08T05:13:47.914Z,14.70
2017-08-08T05:16:15.431Z,16.42
2017-08-08T05:18:42.931Z,15.93
2017-08-08T05:21:10.447Z,16.40
2017-08-08T05:23:37.946Z,15.38
2017-08-08T05:26:05.465Z,15.50
2017-08-08T05:28:32.962Z,15.30
2017-08-08T05:31:00.482Z,14.60
2017-08-08T05:33:27.982Z,14.05
2017-08-08T05:35:55.502Z,14.80
2017-08-08T05:38:22.997Z,12.57
2017-08-08T05:40:50.510Z,12.23
2017-08-08T05:43:18.799Z,13.35
2017-08-08T05:45:46.294Z,11.43
2017-08-08T05:48:13.813Z,12.30
2017-08-08T05:50:41.318Z,11.32
2017-08-08T05:53:08.837Z,11.27
2017-08-08T05:55:36.342Z,10.77
2017-08-08T05:58:03.854Z,10.98
2017-08-08T06:00:31.352Z,10.95
2017-08-08T06:02:58.887Z,10.90
2017-08-08T06:05:26.388Z,10.52
2017-08-08T06:07:53.930Z,9.82
2017-08-08T06:10:21.426Z,10.55
2017-08-08T06:12:49.727Z,10.02
2017-08-08T06:15:17.227Z,9.43
2017-08-08T06:17:44.726Z,8.90
2017-08-08T06:20:13.009Z,8.30
2017-08-08T06:22:40.502Z,8.60
2017-08-08T06:25:08.023Z,8.30
2017-08-08T06:27:35.524Z,8.23
2017-08-08T06:30:03.042Z,8.40
2017-08-08T06:32:30.535Z,8.65
2017-08-08T06:34:58.050Z,7.72
2017-08-08T06:37:26.310Z,8.07
2017-08-08T06:39:54.593Z,7.40
2017-08-08T06:42:22.090Z,7.03
2017-08-08T06:44:49.606Z,7.95
2017-08-08T06:47:17.095Z,6.45
2017-08-08T06:49:44.605Z,7.30
2017-08-08T06:52:12.103Z,6.85
2017-08-08T06:54:40.358Z,6.90
2017-08-08T06:57:07.875Z,5.62
2017-08-08T06:59:35.367Z,6.03
2017-08-08T07:02:02.880Z,6.15
2017-08-08T07:04:30.381Z,5.50
2017-08-08T07:06:57.894Z,5.87
2017-08-08T07:09:25.386Z,5.20
2017-08-08T07:11:52.899Z,4.62
2017-08-08T07:14:20.394Z,5.03
2017-08-08T07:16:47.926Z,5.40
2017-08-08T07:19:15.431Z,5.68
2017-08-08T07:21:42.938Z,4.65
2017-08-08T07:24:10.430Z,5.50
2017-08-08T07:26:37.942Z,4.65
2017-08-08T07:29:06.199Z,4.50
2017-08-08T07:31:34.467Z,4.15
2017-08-08T07:34:01.987Z,4.35
2017-08-08T07:36:29.512Z,4.50
2017-08-08T07:38:57.798Z,3.80
2017-08-08T07:41:25.298Z,4.57
2017-08-08T07:43:52.818Z,4.60
2017-08-08T07:46:20.315Z,3.67
2017-08-08T07:48:47.855Z,4.18
2017-08-08T07:51:15.352Z,4.05
2017-08-08T07:53:42.870Z,4.65
2017-08-08T07:56:10.362Z,4.20
2017-08-08T07:58:37.879Z,4.00
2017-08-08T08:01:05.370Z,4.15
2017-08-08T08:03:32.853Z,3.95
2017-08-08T08:06:00.362Z,4.12
2017-08-08T08:08:27.858Z,3.53
2017-08-08T08:10:55.370Z,4.30
2017-08-08T08:13:22.867Z,3.80
2017-08-08T08:15:50.381Z,3.35
2017-08-08T08:18:17.883Z,3.45
2017-08-08T08:20:45.402Z,3.90
2017-08-08T08:23:12.903Z,3.85
2017-08-08T08:25:40.422Z,3.78
2017-08-08T08:28:07.918Z,3.50
2017-08-08T08:30:35.606Z,4.00
2017-08-08T08:33:03.098Z,4.40
2017-08-08T08:35:30.585Z,3.67
2017-08-08T08:37:58.099Z,3.62
2017-08-08T08:40:26.360Z,3.00
2017-08-08T08:42:53.874Z,3.12
2017-08-08T08:45:21.366Z,3.10
2017-08-08T08:47:48.901Z,3.30
2017-08-08T08:50:16.406Z,3.22
2017-08-08T08:52:44.686Z,3.62
2017-08-08T08:55:12.947Z,3.70
2017-08-08T08:57:40.470Z,3.30
2017-08-08T09:00:07.962Z,3.50
2017-08-08T09:02:35.487Z,3.10
2017-08-08T09:05:02.983Z,3.47
2017-08-08T09:07:30.482Z,3.05
2017-08-08T09:09:58.007Z,3.40
2017-08-08T09:12:26.271Z,3.75
2017-08-08T09:14:53.790Z,3.12
2017-08-08T09:17:21.289Z,2.97
2017-08-08T09:19:48.803Z,3.85
2017-08-08T09:22:16.300Z,4.37
2017-08-08T09:24:43.810Z,3.67
2017-08-08T09:27:11.306Z,4.20
2017-08-08T09:29:38.829Z,4.10
2017-08-08T09:32:06.327Z,4.00
2017-08-08T09:34:33.824Z,3.70
2017-08-08T09:37:02.119Z,4.20
2017-08-08T09:39:29.628Z,4.32
2017-08-08T09:41:57.144Z,3.90
2017-08-08T09:44:24.640Z,4.25
2017-08-08T09:46:52.158Z,4.00
2017-08-08T09:49:19.653Z,4.30
2017-08-08T09:51:47.161Z,3.92
2017-08-08T09:54:15.422Z,4.30
2017-08-08T09:56:43.705Z,3.22
2017-08-08T09:59:11.971Z,4.20
2017-08-08T10:01:39.465Z,3.90
2017-08-08T10:04:06.977Z,3.67
2017-08-08T10:06:34.478Z,3.60
2017-08-08T10:09:01.994Z,4.15
2017-08-08T10:11:29.508Z,3.75
2017-08-08T10:13:57.014Z,4.00
2017-08-08T10:16:24.516Z,3.95
2017-08-08T10:18:52.041Z,3.55
2017-08-08T10:21:19.544Z,3.62
2017-08-08T10:23:47.063Z,4.50
2017-08-08T10:26:15.323Z,4.80
2017-08-08T10:28:42.846Z,4.22
2017-08-08T10:31:10.342Z,3.80
2017-08-08T10:33:37.865Z,4.20
2017-08-08T10:36:05.407Z,4.05
2017-08-08T10:38:32.905Z,3.00
2017-08-08T10:41:00.418Z,3.40
2017-08-08T10:43:27.915Z,3.47
2017-08-08T10:45:55.438Z,2.97
2017-08-08T10:48:22.936Z,3.33
2017-08-08T10:50:50.454Z,3.50
2017-08-08T10:53:17.953Z,2.95
2017-08-08T10:55:45.470Z,3.12
2017-08-08T10:58:12.970Z,3.33
2017-08-08T11:00:40.509Z,3.05
2017-08-08T11:03:08.002Z,3.50
2017-08-08T11:05:35.498Z,3.78
2017-08-08T11:08:03.037Z,3.85
2017-08-08T11:10:31.309Z,3.53
2017-08-08T11:12:58.827Z,3.75
2017-08-08T11:15:26.326Z,3.47
2017-08-08T11:17:53.854Z,2.95
2017-08-08T11:20:21.349Z,3.45
2017-08-08T11:22:48.866Z,3.78
2017-08-08T11:25:16.367Z,3.33
2017-08-08T11:27:43.888Z,3.80
2017-08-08T11:30:11.386Z,4.97
2017-08-08T11:32:38.922Z,4.10
2017-08-08T11:35:06.415Z,4.60
2017-08-08T11:37:34.677Z,4.22
2017-08-08T11:40:02.194Z,4.70
2017-08-08T11:42:29.687Z,4.68
2017-08-08T11:44:57.205Z,5.20
2017-08-08T11:47:24.711Z,6.45
2017-08-08T11:49:52.226Z,6.37
2017-08-08T11:52:19.733Z,6.30
2017-08-08T11:54:47.263Z,6.40
2017-08-08T11:57:14.762Z,5.45
2017-08-08T11:59:42.287Z,4.75
2017-08-08T12:02:09.787Z,4.95
2017-08-08T12:04:38.087Z,6.07
2017-08-08T12:07:05.586Z,5.35
2017-08-08T12:09:33.105Z,5.62
2017-08-08T12:12:00.615Z,4.97
2017-08-08T12:14:28.109Z,4.60
2017-08-08T12:16:55.630Z,3.90
2017-08-08T12:19:23.136Z,3.50
2017-08-08T12:21:50.654Z,3.42
2017-08-08T12:24:18.165Z,3.42
2017-08-08T12:26:45.686Z,3.92
2017-08-08T12:29:13.946Z,3.90
2017-08-08T12:31:41.466Z,3.92
2017-08-08T12:34:08.966Z,3.47
2017-08-08T12:36:36.481Z,4.03
2017-08-08T12:39:03.983Z,4.20
2017-08-08T12:41:31.490Z,4.30
2017-08-08T12:43:59.006Z,4.20
2017-08-08T12:46:26.503Z,4.45
2017-08-08T12:48:54.022Z,4.03
2017-08-08T12:51:21.544Z,4.15
2017-08-08T12:53:49.072Z,4.40
2017-08-08T12:56:16.582Z,4.65
2017-08-08T12:58:44.096Z,4.78
2017-08-08T13:01:11.594Z,4.50
2017-08-08T13:03:39.109Z,4.30
2017-08-08T13:06:06.602Z,5.00
2017-08-08T13:08:34.123Z,5.03
2017-08-08T13:11:01.614Z,4.93
2017-08-08T13:13:29.109Z,4.25
2017-08-08T13:15:56.620Z,4.25
2017-08-08T13:18:24.122Z,4.30
2017-08-08T13:20:51.637Z,3.40
2017-08-08T13:23:19.134Z,4.60
2017-08-08T13:25:46.647Z,4.05
2017-08-08T13:28:14.147Z,4.00
2017-08-08T13:30:41.666Z,3.05
2017-08-08T13:33:09.170Z,4.57
2017-08-08T13:35:36.687Z,3.87
2017-08-08T13:38:04.181Z,4.75
2017-08-08T13:40:31.706Z,3.70
2017-08-08T13:42:59.201Z,4.10
2017-08-08T13:45:26.705Z,4.25
2017-08-08T13:47:54.231Z,4.30
2017-08-08T13:50:21.722Z,3.80
2017-08-08T13:52:49.242Z,4.10
2017-08-08T13:55:16.737Z,4.07
2017-08-08T13:57:44.251Z,4.07
2017-08-08T14:00:11.746Z,4.20
2017-08-08T14:02:40.030Z,3.45
2017-08-08T14:05:07.536Z,3.05
2017-08-08T14:07:35.078Z,3.30
2017-08-08T14:10:02.579Z,3.60
2017-08-08T14:12:30.071Z,3.67
2017-08-08T14:14:57.601Z,4.10
2017-08-08T14:17:25.099Z,3.25
2017-08-08T14:19:53.469Z,3.53
2017-08-08T14:22:20.967Z,3.83
2017-08-08T14:24:48.482Z,3.92
2017-08-08T14:27:15.983Z,4.00
2017-08-08T14:29:43.498Z,3.20
2017-08-08T14:32:10.999Z,4.03
2017-08-08T14:34:38.520Z,3.80
2017-08-08T14:37:06.024Z,3.80
2017-08-08T14:39:33.554Z,4.20
2017-08-08T14:42:01.041Z,4.57
2017-08-08T14:44:28.564Z,4.28
2017-08-08T14:46:56.062Z,4.60
2017-08-08T14:49:23.588Z,4.07
2017-08-08T14:51:51.101Z,4.05
2017-08-08T14:54:18.594Z,4.10
2017-08-08T14:56:46.114Z,3.12
2017-08-08T14:59:13.609Z,3.47
2017-08-08T15:01:41.123Z,3.20
2017-08-08T15:04:08.614Z,2.33
2017-08-08T15:06:36.894Z,2.45
2017-08-08T15:09:04.386Z,3.15
2017-08-08T15:11:31.900Z,2.42
2017-08-08T15:14:00.163Z,2.47
2017-08-08T15:16:27.676Z,2.50
2017-08-08T15:18:55.166Z,2.20
2017-08-08T15:21:22.685Z,2.03
2017-08-08T15:23:50.182Z,2.10
2017-08-08T15:26:17.675Z,1.98
2017-08-08T15:28:45.958Z,1.70
2017-08-08T15:31:14.218Z,2.35
2017-08-08T15:33:41.735Z,1.87
2017-08-08T15:36:09.231Z,2.33
2017-08-08T15:38:36.743Z,1.80
2017-08-08T15:41:04.243Z,1.60
2017-08-08T15:43:31.755Z,1.95
2017-08-08T15:45:59.254Z,1.70
2017-08-08T15:48:26.790Z,2.00
2017-08-08T15:50:54.286Z,2.03
2017-08-08T15:53:21.778Z,1.60
2017-08-08T15:55:49.290Z,1.45
2017-08-08T15:58:16.786Z,2.10
2017-08-08T16:00:45.061Z,1.70
2017-08-08T16:03:13.318Z,1.75
2017-08-08T16:05:40.829Z,2.10
2017-08-08T16:08:08.322Z,1.50
2017-08-08T16:10:35.835Z,1.80
2017-08-08T16:13:03.326Z,1.52
2017-08-08T16:15:30.833Z,2.05
2017-08-08T16:17:59.090Z,2.05
2017-08-08T16:20:26.605Z,2.22
2017-08-08T16:22:54.098Z,2.20
2017-08-08T16:25:21.586Z,2.30
2017-08-08T16:27:49.870Z,2.20
2017-08-08T16:30:17.367Z,2.10
2017-08-08T16:32:44.882Z,2.15
2017-08-08T16:35:13.179Z,2.40
2017-08-08T16:37:40.698Z,1.90
2017-08-08T16:40:08.191Z,1.87
2017-08-08T16:42:35.698Z,2.30
2017-08-08T16:45:03.209Z,2.15
2017-08-08T16:47:30.722Z,1.95
2017-08-08T16:49:58.222Z,2.45
2017-08-08T16:52:25.742Z,1.80
2017-08-08T16:54:53.238Z,2.50
2017-08-08T16:57:20.738Z,1.83
2017-08-08T16:59:48.249Z,2.20
2017-08-08T17:02:15.738Z,2.00
2017-08-08T17:04:43.251Z,2.30
2017-08-08T17:07:11.513Z,2.12
2017-08-08T17:09:39.026Z,2.40
2017-08-08T17:12:06.529Z,2.40
2017-08-08T17:14:34.056Z,1.80
2017-08-08T17:17:01.553Z,2.25
2017-08-08T17:19:29.065Z,2.33
2017-08-08T17:21:56.550Z,2.30
2017-08-08T17:24:24.070Z,2.45
2017-08-08T17:26:51.566Z,2.83
2017-08-08T17:29:19.083Z,2.20
2017-08-08T17:31:46.597Z,2.35
2017-08-08T17:34:14.094Z,1.80
2017-08-08T17:36:41.611Z,2.75
2017-08-08T17:39:09.111Z,1.70
2017-08-08T17:41:36.628Z,2.10
2017-08-08T17:44:04.114Z,2.03
2017-08-08T17:46:31.629Z,2.80
2017-08-08T17:48:59.119Z,2.40
2017-08-08T17:51:26.645Z,2.40
2017-08-08T17:53:54.138Z,2.20
2017-08-08T17:56:22.413Z,2.53
2017-08-08T17:58:49.911Z,2.58
2017-08-08T18:01:17.426Z,2.40
2017-08-08T18:03:44.918Z,2.45
2017-08-08T18:06:12.413Z,2.20
2017-08-08T18:08:39.918Z,2.33
2017-08-08T18:11:08.182Z,2.60
2017-08-08T18:13:35.690Z,2.42
2017-08-08T18:16:03.183Z,2.50
2017-08-08T18:18:30.698Z,2.40
2017-08-08T18:20:58.190Z,2.45
2017-08-08T18:23:25.711Z,2.40
2017-08-08T18:25:53.198Z,2.30
2017-08-08T18:28:20.714Z,1.65
2017-08-08T18:30:48.979Z,1.80
2017-08-08T18:33:17.266Z,1.75
2017-08-08T18:35:45.525Z,1.95
2017-08-08T18:38:13.023Z,1.67
2017-08-08T18:40:40.537Z,1.90
2017-08-08T18:43:08.030Z,1.87
2017-08-08T18:45:35.545Z,1.80
2017-08-08T18:48:03.039Z,1.40
2017-08-08T18:50:31.314Z,1.95
2017-08-08T18:52:59.575Z,1.30
2017-08-08T18:55:27.085Z,1.33
2017-08-08T18:57:54.582Z,1.60
2017-08-08T19:00:22.090Z,1.80
2017-08-08T19:02:49.587Z,1.95
2017-08-08T19:05:17.101Z,1.40
2017-08-08T19:07:44.590Z,2.03
2017-08-08T19:10:12.094Z,1.55
2017-08-08T19:12:39.587Z,1.83
2017-08-08T19:15:07.104Z,1.87
2017-08-08T19:17:35.363Z,2.10
2017-08-08T19:20:02.884Z,2.12
2017-08-08T19:22:30.373Z,2.10
2017-08-08T19:24:57.867Z,3.37
2017-08-08T19:27:26.145Z,3.17
2017-08-08T19:29:54.406Z,3.65
2017-08-08T19:32:21.918Z,2.42
2017-08-08T19:34:49.417Z,2.33
2017-08-08T19:37:16.934Z,2.70
2017-08-08T19:39:44.430Z,2.35
2017-08-08T19:42:11.940Z,2.45
2017-08-08T19:44:39.439Z,2.00
2017-08-08T19:47:06.951Z,2.20
2017-08-08T19:49:34.447Z,2.20
2017-08-08T19:52:01.961Z,2.20
2017-08-08T19:54:29.449Z,2.30
2017-08-08T19:56:56.972Z,2.45
2017-08-08T19:59:25.230Z,2.20
2017-08-08T20:01:52.738Z,1.70
2017-08-08T20:04:20.242Z,2.08
2017-08-08T20:06:47.765Z,2.33
2017-08-08T20:09:15.253Z,1.98
2017-08-08T20:11:42.748Z,2.35
2017-08-08T20:14:10.258Z,2.60
2017-08-08T20:16:37.761Z,2.10
2017-08-08T20:19:05.277Z,2.05
2017-08-08T20:21:32.766Z,2.20
2017-08-08T20:24:01.042Z,2.10
2017-08-08T20:26:28.539Z,2.17
2017-08-08T20:28:56.050Z,2.22
2017-08-08T20:31:23.546Z,1.98
2017-08-08T20:33:51.057Z,1.87
2017-08-08T20:36:18.551Z,2.00
2017-08-08T20:38:46.041Z,2.00
2017-08-08T20:41:13.554Z,1.50
2017-08-08T20:43:41.051Z,1.70
2017-08-08T20:46:08.561Z,1.65
2017-08-08T20:48:36.051Z,1.80
2017-08-08T20:51:03.557Z,2.03
2017-08-08T20:53:31.055Z,1.30
2017-08-08T20:55:59.331Z,1.50
2017-08-08T20:58:27.589Z,1.60
2017-08-08T21:00:55.095Z,1.30
2017-08-08T21:03:22.598Z,1.75
2017-08-08T21:05:50.118Z,1.83
2017-08-08T21:08:17.614Z,1.70
2017-08-08T21:10:45.125Z,1.30
2017-08-08T21:13:12.613Z,1.50
2017-08-08T21:15:40.108Z,1.12
2017-08-08T21:18:07.622Z,1.05
2017-08-08T21:20:35.114Z,0.70
2017-08-08T21:23:02.638Z,1.30
2017-08-08T21:25:30.126Z,1.40
2017-08-08T21:27:57.646Z,0.98
2017-08-08T21:30:25.139Z,1.12
2017-08-08T21:32:52.650Z,1.15
2017-08-08T21:35:20.144Z,1.20
2017-08-08T21:37:47.668Z,1.12
2017-08-08T21:40:15.154Z,1.02
2017-08-08T21:42:42.666Z,1.27
2017-08-08T21:45:10.930Z,1.10
2017-08-08T21:47:39.206Z,1.10
2017-08-08T21:50:06.697Z,1.00
2017-08-08T21:52:34.199Z,1.00
2017-08-08T21:55:01.706Z,1.30
2017-08-08T21:57:29.206Z,1.10
2017-08-08T21:59:56.722Z,1.20
2017-08-08T22:02:24.214Z,1.00
2017-08-08T22:04:51.722Z,1.25
2017-08-08T22:07:19.990Z,1.20
2017-08-08T22:09:47.502Z,1.10
2017-08-08T22:12:14.998Z,1.27
2017-08-08T22:14:42.505Z,0.95
2017-08-08T22:17:09.993Z,1.35
2017-08-08T22:19:37.506Z,1.25
2017-08-08T22:22:04.997Z,1.12
2017-08-08T22:24:32.514Z,1.27
2017-08-08T22:27:00.769Z,1.35
2017-08-08T22:29:28.283Z,1.17
2017-08-08T22:31:55.778Z,1.10
2017-08-08T22:34:23.269Z,1.42
2017-08-08T22:36:51.546Z,1.40
2017-08-08T22:39:19.798Z,1.25
2017-08-08T22:41:47.302Z,1.40
2017-08-08T22:44:14.795Z,1.40
2017-08-08T22:46:42.310Z,1.37
2017-08-08T22:49:09.826Z,1.00
2017-08-08T22:51:37.334Z,1.62
2017-08-08T22:54:04.821Z,1.40
2017-08-08T22:56:32.335Z,1.45
2017-08-08T22:59:00.595Z,1.10
2017-08-08T23:01:28.118Z,1.48
2017-08-08T23:03:55.605Z,1.20
2017-08-08T23:06:23.134Z,1.70
2017-08-08T23:08:50.625Z,1.55
2017-08-08T23:11:18.122Z,3.03
2017-08-08T23:13:45.633Z,1.77
2017-08-08T23:16:13.130Z,1.20
2017-08-08T23:18:40.646Z,1.40
2017-08-08T23:21:08.142Z,1.20
2017-08-08T23:23:35.657Z,1.15
2017-08-08T23:26:03.161Z,1.45
2017-08-08T23:28:31.442Z,1.50
2017-08-08T23:30:58.937Z,1.60
2017-08-08T23:33:26.454Z,1.65
2017-08-08T23:35:54.709Z,1.15
2017-08-08T23:38:22.219Z,1.30
2017-08-08T23:40:49.710Z,1.30
2017-08-08T23:43:17.202Z,1.30
2017-08-08T23:45:45.483Z,1.25
2017-08-08T23:48:13.742Z,1.90
2017-08-08T23:50:41.254Z,1.83
2017-08-08T23:53:08.737Z,1.92
2017-08-08T23:55:36.241Z,1.85
2017-08-08T23:58:03.729Z,1.85
